sensor_id;sensor_type;location;lat;lon;timestamp;pressure;altitude;pressure_sealevel;temperature;humidity
12146;BME280;6136;47.032;15.398;2023-04-27T00:00:24;97739.00;;;6.12;100.00
12146;BME280;6136;47.032;15.398;2023-04-27T00:02:53;97735.53;;;6.12;100.00
12146;BME280;6136;47.032;15.398;2023-04-27T00:05:22;97728.53;;;6.11;100.00
12146;BME280;6136;47.032;15.398;2023-04-27T00:07:50;97730.47;;;6.07;100.00
12146;BME280;6136;47.032;15.398;2023-04-27T00:10:20;97718.41;;;6.02;100.00
12146;BME280;6136;47.032;15.398;2023-04-27T00:12:49;97731.44;;;6.05;100.00
12146;BME280;6136;47.032;15.398;2023-04-27T00:15:17;97729.84;;;6.01;100.00
12146;BME280;6136;47.032;15.398;2023-04-27T00:17:45;97737.72;;;6.01;100.00
12146;BME280;6136;47.032;15.398;2023-04-27T00:20:14;97727.34;;;5.98;100.00
12146;BME280;6136;47.032;15.398;2023-04-27T00:22:43;97722.47;;;5.87;100.00
12146;BME280;6136;47.032;15.398;2023-04-27T00:25:11;97730.88;;;5.97;100.00
12146;BME280;6136;47.032;15.398;2023-04-27T00:27:41;97720.75;;;5.88;100.00
12146;BME280;6136;47.032;15.398;2023-04-27T00:30:10;97718.00;;;5.91;100.00
12146;BME280;6136;47.032;15.398;2023-04-27T00:32:38;97724.25;;;5.86;100.00
12146;BME280;6136;47.032;15.398;2023-04-27T00:35:08;97722.53;;;5.85;100.00
12146;BME280;6136;47.032;15.398;2023-04-27T00:37:37;97717.53;;;5.79;100.00
12146;BME280;6136;47.032;15.398;2023-04-27T00:40:06;97724.75;;;5.74;100.00
12146;BME280;6136;47.032;15.398;2023-04-27T00:42:35;97718.84;;;5.69;100.00
12146;BME280;6136;47.032;15.398;2023-04-27T00:45:06;97729.53;;;5.65;100.00
12146;BME280;6136;47.032;15.398;2023-04-27T00:47:35;97720.88;;;5.63;100.00
12146;BME280;6136;47.032;15.398;2023-04-27T00:50:04;97723.66;;;5.58;100.00
12146;BME280;6136;47.032;15.398;2023-04-27T00:52:35;97723.81;;;5.55;100.00
12146;BME280;6136;47.032;15.398;2023-04-27T00:55:04;97725.63;;;5.53;100.00
12146;BME280;6136;47.032;15.398;2023-04-27T00:57:33;97726.53;;;5.52;100.00
12146;BME280;6136;47.032;15.398;2023-04-27T01:00:05;97724.16;;;5.46;100.00
12146;BME280;6136;47.032;15.398;2023-04-27T01:02:34;97724.81;;;5.51;100.00
12146;BME280;6136;47.032;15.398;2023-04-27T01:05:03;97714.56;;;5.45;100.00
12146;BME280;6136;47.032;15.398;2023-04-27T01:07:36;97730.03;;;5.53;100.00
12146;BME280;6136;47.032;15.398;2023-04-27T01:10:05;97730.88;;;5.53;100.00
12146;BME280;6136;47.032;15.398;2023-04-27T01:12:34;97728.41;;;5.48;100.00
12146;BME280;6136;47.032;15.398;2023-04-27T01:15:07;97719.75;;;5.46;100.00
12146;BME280;6136;47.032;15.398;2023-04-27T01:17:36;97731.78;;;5.52;100.00
12146;BME280;6136;47.032;15.398;2023-04-27T01:20:05;97729.28;;;5.49;100.00
12146;BME280;6136;47.032;15.398;2023-04-27T01:22:35;97737.97;;;5.51;100.00
12146;BME280;6136;47.032;15.398;2023-04-27T01:25:06;97731.00;;;5.50;100.00
12146;BME280;6136;47.032;15.398;2023-04-27T01:27:34;97736.38;;;5.47;100.00
12146;BME280;6136;47.032;15.398;2023-04-27T01:30:04;97725.19;;;5.42;100.00
12146;BME280;6136;47.032;15.398;2023-04-27T01:32:32;97725.47;;;5.34;100.00
12146;BME280;6136;47.032;15.398;2023-04-27T01:35:01;97717.69;;;5.33;100.00
12146;BME280;6136;47.032;15.398;2023-04-27T01:37:30;97731.66;;;5.33;100.00
12146;BME280;6136;47.032;15.398;2023-04-27T01:39:58;97735.38;;;5.28;100.00
12146;BME280;6136;47.032;15.398;2023-04-27T01:42:29;97739.72;;;5.29;100.00
12146;BME280;6136;47.032;15.398;2023-04-27T01:44:57;97734.50;;;5.27;100.00
12146;BME280;6136;47.032;15.398;2023-04-27T01:47:26;97738.81;;;5.30;100.00
12146;BME280;6136;47.032;15.398;2023-04-27T01:49:54;97740.53;;;5.31;100.00
12146;BME280;6136;47.032;15.398;2023-04-27T01:52:23;97742.22;;;5.32;100.00
12146;BME280;6136;47.032;15.398;2023-04-27T01:54:51;97747.34;;;5.35;100.00
12146;BME280;6136;47.032;15.398;2023-04-27T01:57:21;97750.88;;;5.34;100.00
12146;BME280;6136;47.032;15.398;2023-04-27T01:59:51;97736.38;;;5.25;100.00
12146;BME280;6136;47.032;15.398;2023-04-27T02:02:20;97753.59;;;5.32;100.00
12146;BME280;6136;47.032;15.398;2023-04-27T02:04:49;97748.44;;;5.29;100.00
12146;BME280;6136;47.032;15.398;2023-04-27T02:07:18;97738.84;;;5.28;100.00
12146;BME280;6136;47.032;15.398;2023-04-27T02:09:46;97749.22;;;5.33;100.00
12146;BME280;6136;47.032;15.398;2023-04-27T02:12:14;97755.22;;;5.35;100.00
12146;BME280;6136;47.032;15.398;2023-04-27T02:14:43;97748.63;;;5.25;100.00
12146;BME280;6136;47.032;15.398;2023-04-27T02:17:12;97757.75;;;5.38;100.00
12146;BME280;6136;47.032;15.398;2023-04-27T02:19:40;97753.41;;;5.37;100.00
12146;BME280;6136;47.032;15.398;2023-04-27T02:22:10;97752.50;;;5.38;100.00
12146;BME280;6136;47.032;15.398;2023-04-27T02:24:38;97757.69;;;5.39;100.00
12146;BME280;6136;47.032;15.398;2023-04-27T02:27:06;97753.97;;;5.45;100.00
12146;BME280;6136;47.032;15.398;2023-04-27T02:29:35;97764.38;;;5.48;100.00
12146;BME280;6136;47.032;15.398;2023-04-27T02:32:05;97760.59;;;5.55;100.00
12146;BME280;6136;47.032;15.398;2023-04-27T02:34:35;97742.56;;;5.46;100.00
12146;BME280;6136;47.032;15.398;2023-04-27T02:37:03;97754.53;;;5.53;100.00
12146;BME280;6136;47.032;15.398;2023-04-27T02:39:32;97758.88;;;5.54;100.00
12146;BME280;6136;47.032;15.398;2023-04-27T02:42:00;97759.53;;;5.59;100.00
12146;BME280;6136;47.032;15.398;2023-04-27T02:44:29;97747.50;;;5.54;100.00
12146;BME280;6136;47.032;15.398;2023-04-27T02:46:58;97758.63;;;5.60;100.00
12146;BME280;6136;47.032;15.398;2023-04-27T02:49:27;97755.97;;;5.62;100.00
12146;BME280;6136;47.032;15.398;2023-04-27T02:51:57;97748.13;;;5.60;100.00
12146;BME280;6136;47.032;15.398;2023-04-27T02:54:25;97765.72;;;5.58;100.00
12146;BME280;6136;47.032;15.398;2023-04-27T02:56:53;97760.47;;;5.58;100.00
12146;BME280;6136;47.032;15.398;2023-04-27T02:59:21;97753.63;;;5.54;100.00
12146;BME280;6136;47.032;15.398;2023-04-27T03:01:50;97755.25;;;5.57;100.00
12146;BME280;6136;47.032;15.398;2023-04-27T03:04:18;97757.88;;;5.57;100.00
12146;BME280;6136;47.032;15.398;2023-04-27T03:06:47;97767.38;;;5.61;100.00
12146;BME280;6136;47.032;15.398;2023-04-27T03:09:17;97772.59;;;5.62;100.00
12146;BME280;6136;47.032;15.398;2023-04-27T03:11:45;97764.75;;;5.61;100.00
12146;BME280;6136;47.032;15.398;2023-04-27T03:14:13;97768.97;;;5.65;100.00
12146;BME280;6136;47.032;15.398;2023-04-27T03:16:42;97774.28;;;5.63;100.00
12146;BME280;6136;47.032;15.398;2023-04-27T03:19:12;97774.16;;;5.66;100.00
12146;BME280;6136;47.032;15.398;2023-04-27T03:21:41;97774.16;;;5.66;100.00
12146;BME280;6136;47.032;15.398;2023-04-27T03:24:09;97769.72;;;5.68;100.00
12146;BME280;6136;47.032;15.398;2023-04-27T03:26:38;97771.78;;;5.60;100.00
12146;BME280;6136;47.032;15.398;2023-04-27T03:29:07;97774.41;;;5.60;100.00
12146;BME280;6136;47.032;15.398;2023-04-27T03:31:35;97776.13;;;5.61;100.00
12146;BME280;6136;47.032;15.398;2023-04-27T03:34:04;97781.50;;;5.58;100.00
12146;BME280;6136;47.032;15.398;2023-04-27T03:36:32;97781.50;;;5.58;100.00
12146;BME280;6136;47.032;15.398;2023-04-27T03:39:01;97777.03;;;5.60;100.00
12146;BME280;6136;47.032;15.398;2023-04-27T03:41:29;97785.72;;;5.62;100.00
12146;BME280;6136;47.032;15.398;2023-04-27T03:43:59;97777.22;;;5.56;100.00
12146;BME280;6136;47.032;15.398;2023-04-27T03:46:27;97775.81;;;5.47;100.00
12146;BME280;6136;47.032;15.398;2023-04-27T03:48:56;97776.78;;;5.44;100.00
12146;BME280;6136;47.032;15.398;2023-04-27T03:51:24;97784.56;;;5.47;100.00
12146;BME280;6136;47.032;15.398;2023-04-27T03:53:53;97783.69;;;5.47;100.00
12146;BME280;6136;47.032;15.398;2023-04-27T03:56:22;97778.34;;;5.48;100.00
12146;BME280;6136;47.032;15.398;2023-04-27T03:58:50;97781.84;;;5.49;100.00
12146;BME280;6136;47.032;15.398;2023-04-27T04:01:22;97783.56;;;5.50;100.00
12146;BME280;6136;47.032;15.398;2023-04-27T04:03:50;97781.84;;;5.49;100.00
12146;BME280;6136;47.032;15.398;2023-04-27T04:06:19;97788.94;;;5.47;100.00
12146;BME280;6136;47.032;15.398;2023-04-27T04:08:47;97774.44;;;5.37;100.00
12146;BME280;6136;47.032;15.398;2023-04-27T04:11:16;97790.53;;;5.51;100.00
12146;BME280;6136;47.032;15.398;2023-04-27T04:13:44;97786.88;;;5.55;100.00
12146;BME280;6136;47.032;15.398;2023-04-27T04:16:13;97787.84;;;5.53;100.00
12146;BME280;6136;47.032;15.398;2023-04-27T04:18:43;97793.72;;;5.59;100.00
12146;BME280;6136;47.032;15.398;2023-04-27T04:21:12;97792.75;;;5.62;100.00
12146;BME280;6136;47.032;15.398;2023-04-27T04:23:41;97794.38;;;5.64;100.00
12146;BME280;6136;47.032;15.398;2023-04-27T04:26:09;97792.66;;;5.63;100.00
12146;BME280;6136;47.032;15.398;2023-04-27T04:28:39;97801.41;;;5.64;100.00
12146;BME280;6136;47.032;15.398;2023-04-27T04:31:08;97792.50;;;5.68;100.00
12146;BME280;6136;47.032;15.398;2023-04-27T04:33:36;97782.72;;;5.71;100.00
12146;BME280;6136;47.032;15.398;2023-04-27T04:36:07;97802.47;;;5.81;100.00
12146;BME280;6136;47.032;15.398;2023-04-27T04:38:37;97796.31;;;5.82;100.00
12146;BME280;6136;47.032;15.398;2023-04-27T04:41:06;97801.25;;;5.92;100.00
12146;BME280;6136;47.032;15.398;2023-04-27T04:43:36;97808.75;;;6.01;100.00
12146;BME280;6136;47.032;15.398;2023-04-27T04:46:05;97812.19;;;6.03;100.00
12146;BME280;6136;47.032;15.398;2023-04-27T04:48:34;97812.06;;;6.06;100.00
12146;BME280;6136;47.032;15.398;2023-04-27T04:51:04;97813.53;;;6.13;100.00
12146;BME280;6136;47.032;15.398;2023-04-27T04:53:34;97799.47;;;6.14;100.00
12146;BME280;6136;47.032;15.398;2023-04-27T04:56:08;97805.88;;;6.29;100.00
12146;BME280;6136;47.032;15.398;2023-04-27T04:58:37;97806.72;;;6.29;100.00
12146;BME280;6136;47.032;15.398;2023-04-27T05:01:05;97818.72;;;6.36;100.00
12146;BME280;6136;47.032;15.398;2023-04-27T05:03:34;97811.16;;;6.49;100.00
12146;BME280;6136;47.032;15.398;2023-04-27T05:06:03;97808.84;;;6.61;100.00
12146;BME280;6136;47.032;15.398;2023-04-27T05:08:32;97817.28;;;6.70;100.00
12146;BME280;6136;47.032;15.398;2023-04-27T05:11:02;97817.16;;;6.73;100.00
12146;BME280;6136;47.032;15.398;2023-04-27T05:13:31;97821.03;;;6.84;100.00
12146;BME280;6136;47.032;15.398;2023-04-27T05:16:02;97803.19;;;6.91;100.00
12146;BME280;6136;47.032;15.398;2023-04-27T05:18:32;97815.03;;;7.01;100.00
12146;BME280;6136;47.032;15.398;2023-04-27T05:21:01;97823.81;;;7.20;100.00
12146;BME280;6136;47.032;15.398;2023-04-27T05:23:29;97821.38;;;7.36;100.00
12146;BME280;6136;47.032;15.398;2023-04-27T05:25:58;97827.16;;;7.44;100.00
12146;BME280;6136;47.032;15.398;2023-04-27T05:28:28;97820.31;;;7.59;100.00
12146;BME280;6136;47.032;15.398;2023-04-27T05:30:57;97820.81;;;7.67;100.00
12146;BME280;6136;47.032;15.398;2023-04-27T05:33:25;97817.03;;;7.54;100.00
12146;BME280;6136;47.032;15.398;2023-04-27T05:35:54;97831.44;;;7.65;100.00
12146;BME280;6136;47.032;15.398;2023-04-27T05:38:22;97837.97;;;7.94;100.00
12146;BME280;6136;47.032;15.398;2023-04-27T05:40:53;97826.50;;;7.95;100.00
12146;BME280;6136;47.032;15.398;2023-04-27T05:43:22;97839.97;;;8.08;100.00
12146;BME280;6136;47.032;15.398;2023-04-27T05:45:52;97837.38;;;8.25;99.11
12146;BME280;6136;47.032;15.398;2023-04-27T05:48:21;97842.03;;;8.56;98.85
12146;BME280;6136;47.032;15.398;2023-04-27T05:50:58;97830.94;;;8.49;96.27
12146;BME280;6136;47.032;15.398;2023-04-27T05:53:31;97832.72;;;8.66;95.95
12146;BME280;6136;47.032;15.398;2023-04-27T05:56:03;97838.06;;;8.82;94.38
12146;BME280;6136;47.032;15.398;2023-04-27T05:58:37;97835.75;;;8.93;91.63
12146;BME280;6136;47.032;15.398;2023-04-27T06:01:07;97838.47;;;9.09;88.31
12146;BME280;6136;47.032;15.398;2023-04-27T06:03:36;97833.97;;;9.11;87.80
12146;BME280;6136;47.032;15.398;2023-04-27T06:06:06;97835.88;;;9.24;84.48
12146;BME280;6136;47.032;15.398;2023-04-27T06:08:34;97846.06;;;9.32;85.80
12146;BME280;6136;47.032;15.398;2023-04-27T06:11:05;97843.78;;;9.57;85.71
12146;BME280;6136;47.032;15.398;2023-04-27T06:13:33;97836.44;;;9.47;82.44
12146;BME280;6136;47.032;15.398;2023-04-27T06:16:03;97862.50;;;9.54;80.88
12146;BME280;6136;47.032;15.398;2023-04-27T06:18:40;97833.41;;;9.54;81.88
12146;BME280;6136;47.032;15.398;2023-04-27T06:21:09;97844.19;;;9.83;80.37
12146;BME280;6136;47.032;15.398;2023-04-27T06:23:37;97850.34;;;9.99;77.67
12146;BME280;6136;47.032;15.398;2023-04-27T06:26:05;97866.25;;;10.30;79.31
12146;BME280;6136;47.032;15.398;2023-04-27T06:28:34;97855.66;;;10.15;74.66
12146;BME280;6136;47.032;15.398;2023-04-27T06:31:03;97846.75;;;10.31;74.04
12146;BME280;6136;47.032;15.398;2023-04-27T06:33:32;97860.84;;;10.47;70.80
12146;BME280;6136;47.032;15.398;2023-04-27T06:36:02;97862.47;;;10.66;68.09
12146;BME280;6136;47.032;15.398;2023-04-27T06:38:32;97858.16;;;10.79;67.09
12146;BME280;6136;47.032;15.398;2023-04-27T06:41:00;97867.59;;;10.53;68.82
12146;BME280;6136;47.032;15.398;2023-04-27T06:43:29;97865.91;;;10.82;66.79
12146;BME280;6136;47.032;15.398;2023-04-27T06:45:58;97860.72;;;10.80;66.26
12146;BME280;6136;47.032;15.398;2023-04-27T06:48:26;97863.25;;;10.82;63.96
12146;BME280;6136;47.032;15.398;2023-04-27T06:50:55;97858.47;;;10.59;63.85
12146;BME280;6136;47.032;15.398;2023-04-27T06:53:25;97863.22;;;10.98;63.65
12146;BME280;6136;47.032;15.398;2023-04-27T06:55:54;97853.44;;;11.42;62.30
12146;BME280;6136;47.032;15.398;2023-04-27T06:58:22;97854.50;;;11.68;62.44
12146;BME280;6136;47.032;15.398;2023-04-27T07:00:51;97863.75;;;11.77;58.93
12146;BME280;6136;47.032;15.398;2023-04-27T07:03:20;97862.88;;;11.90;56.43
12146;BME280;6136;47.032;15.398;2023-04-27T07:05:49;97858.03;;;11.83;57.72
12146;BME280;6136;47.032;15.398;2023-04-27T07:08:18;97864.00;;;11.86;56.20
12146;BME280;6136;47.032;15.398;2023-04-27T07:10:49;97864.09;;;11.99;56.19
12146;BME280;6136;47.032;15.398;2023-04-27T07:13:17;97849.66;;;12.03;54.51
12146;BME280;6136;47.032;15.398;2023-04-27T07:15:46;97841.91;;;12.00;53.98
12146;BME280;6136;47.032;15.398;2023-04-27T07:18:14;97856.88;;;12.42;54.75
12146;BME280;6136;47.032;15.398;2023-04-27T07:20:43;97869.28;;;12.56;50.07
12146;BME280;6136;47.032;15.398;2023-04-27T07:23:12;97849.69;;;12.44;49.91
12146;BME280;6136;47.032;15.398;2023-04-27T07:25:40;97863.25;;;12.39;50.51
12146;BME280;6136;47.032;15.398;2023-04-27T07:28:11;97858.81;;;12.67;52.13
12146;BME280;6136;47.032;15.398;2023-04-27T07:30:39;97851.94;;;13.16;47.52
12146;BME280;6136;47.032;15.398;2023-04-27T07:33:09;97843.94;;;13.29;49.13
12146;BME280;6136;47.032;15.398;2023-04-27T07:35:37;97844.28;;;13.37;49.75
12146;BME280;6136;47.032;15.398;2023-04-27T07:38:06;97837.53;;;14.31;49.61
12146;BME280;6136;47.032;15.398;2023-04-27T07:40:34;97822.78;;;15.56;46.00
12146;BME280;6136;47.032;15.398;2023-04-27T07:43:03;97827.44;;;17.17;42.73
12146;BME280;6136;47.032;15.398;2023-04-27T07:45:34;97836.25;;;18.40;40.19
12146;BME280;6136;47.032;15.398;2023-04-27T07:48:05;97817.13;;;19.41;37.71
12146;BME280;6136;47.032;15.398;2023-04-27T07:50:34;97822.66;;;20.23;34.65
12146;BME280;6136;47.032;15.398;2023-04-27T07:53:02;97830.19;;;19.83;33.06
12146;BME280;6136;47.032;15.398;2023-04-27T07:55:31;97821.63;;;21.50;31.15
12146;BME280;6136;47.032;15.398;2023-04-27T07:58:00;97830.59;;;21.33;33.11
12146;BME280;6136;47.032;15.398;2023-04-27T08:00:29;97829.19;;;21.28;30.80
12146;BME280;6136;47.032;15.398;2023-04-27T08:02:59;97823.34;;;21.15;31.51
12146;BME280;6136;47.032;15.398;2023-04-27T08:05:28;97819.25;;;21.73;30.92
12146;BME280;6136;47.032;15.398;2023-04-27T08:07:58;97822.31;;;21.52;30.80
12146;BME280;6136;47.032;15.398;2023-04-27T08:10:27;97827.06;;;22.10;31.32
12146;BME280;6136;47.032;15.398;2023-04-27T08:12:56;97825.13;;;22.20;30.22
12146;BME280;6136;47.032;15.398;2023-04-27T08:15:24;97814.88;;;21.97;30.35
12146;BME280;6136;47.032;15.398;2023-04-27T08:17:53;97819.91;;;22.26;30.55
12146;BME280;6136;47.032;15.398;2023-04-27T08:20:23;97823.69;;;23.00;27.21
12146;BME280;6136;47.032;15.398;2023-04-27T08:22:52;97816.94;;;23.44;27.27
12146;BME280;6136;47.032;15.398;2023-04-27T08:25:21;97815.59;;;23.56;25.99
12146;BME280;6136;47.032;15.398;2023-04-27T08:27:56;97817.88;;;24.94;24.46
12146;BME280;6136;47.032;15.398;2023-04-27T08:30:50;97806.81;;;23.30;27.55
12146;BME280;6136;47.032;15.398;2023-04-27T08:34:18;97811.84;;;23.82;27.14
12146;BME280;6136;47.032;15.398;2023-04-27T08:38:13;97811.28;;;24.03;27.99
12146;BME280;6136;47.032;15.398;2023-04-27T08:41:29;97816.19;;;25.39;26.04
12146;BME280;6136;47.032;15.398;2023-04-27T08:43:58;97814.94;;;23.71;26.97
12146;BME280;6136;47.032;15.398;2023-04-27T08:46:27;97811.47;;;21.69;29.67
12146;BME280;6136;47.032;15.398;2023-04-27T08:48:58;97819.47;;;21.36;31.12
12146;BME280;6136;47.032;15.398;2023-04-27T08:51:27;97803.22;;;22.97;27.76
12146;BME280;6136;47.032;15.398;2023-04-27T08:53:57;97813.50;;;22.27;29.75
12146;BME280;6136;47.032;15.398;2023-04-27T08:56:27;97812.34;;;22.80;31.62
12146;BME280;6136;47.032;15.398;2023-04-27T08:58:57;97803.16;;;22.15;30.88
12146;BME280;6136;47.032;15.398;2023-04-27T09:01:25;97788.91;;;22.97;30.82
12146;BME280;6136;47.032;15.398;2023-04-27T09:03:55;97793.84;;;25.51;25.93
12146;BME280;6136;47.032;15.398;2023-04-27T09:06:28;97788.69;;;25.94;25.81
12146;BME280;6136;47.032;15.398;2023-04-27T09:09:00;97788.91;;;26.51;25.06
12146;BME280;6136;47.032;15.398;2023-04-27T09:11:30;97781.03;;;25.23;26.47
12146;BME280;6136;47.032;15.398;2023-04-27T09:14:01;97789.28;;;25.52;25.42
12146;BME280;6136;47.032;15.398;2023-04-27T09:16:30;97786.06;;;27.38;23.15
12146;BME280;6136;47.032;15.398;2023-04-27T09:18:59;97779.81;;;28.21;22.45
12146;BME280;6136;47.032;15.398;2023-04-27T09:21:28;97774.16;;;28.23;22.07
12146;BME280;6136;47.032;15.398;2023-04-27T09:24:08;97775.88;;;28.02;22.49
12146;BME280;6136;47.032;15.398;2023-04-27T09:26:37;97770.88;;;25.62;25.89
12146;BME280;6136;47.032;15.398;2023-04-27T09:29:05;97781.94;;;25.38;27.14
12146;BME280;6136;47.032;15.398;2023-04-27T09:31:35;97788.16;;;26.79;24.77
12146;BME280;6136;47.032;15.398;2023-04-27T09:34:04;97784.22;;;27.17;23.66
12146;BME280;6136;47.032;15.398;2023-04-27T09:36:33;97754.69;;;27.63;23.54
12146;BME280;6136;47.032;15.398;2023-04-27T09:39:03;97765.97;;;27.39;23.26
12146;BME280;6136;47.032;15.398;2023-04-27T09:41:32;97767.22;;;24.64;27.46
12146;BME280;6136;47.032;15.398;2023-04-27T09:44:02;97756.38;;;25.32;26.42
12146;BME280;6136;47.032;15.398;2023-04-27T09:46:32;97766.25;;;26.30;25.50
12146;BME280;6136;47.032;15.398;2023-04-27T09:49:03;97752.69;;;26.87;25.11
12146;BME280;6136;47.032;15.398;2023-04-27T09:51:32;97762.75;;;27.08;23.89
12146;BME280;6136;47.032;15.398;2023-04-27T09:54:03;97754.91;;;24.76;27.41
12146;BME280;6136;47.032;15.398;2023-04-27T09:56:40;97753.75;;;22.80;29.70
12146;BME280;6136;47.032;15.398;2023-04-27T09:59:31;97756.47;;;22.89;28.84
12146;BME280;6136;47.032;15.398;2023-04-27T10:02:04;97761.97;;;21.53;30.78
12146;BME280;6136;47.032;15.398;2023-04-27T10:05:10;97745.69;;;21.37;31.91
12146;BME280;6136;47.032;15.398;2023-04-27T10:07:44;97750.88;;;21.56;31.42
12146;BME280;6136;47.032;15.398;2023-04-27T10:10:18;97759.47;;;23.58;29.12
12146;BME280;6136;47.032;15.398;2023-04-27T10:12:56;97753.16;;;27.33;24.08
12146;BME280;6136;47.032;15.398;2023-04-27T10:15:26;97749.97;;;26.65;25.61
12146;BME280;6136;47.032;15.398;2023-04-27T10:18:01;97740.44;;;27.61;23.61
12146;BME280;6136;47.032;15.398;2023-04-27T10:20:34;97740.00;;;26.37;26.68
12146;BME280;6136;47.032;15.398;2023-04-27T10:23:03;97730.84;;;25.27;27.97
12146;BME280;6136;47.032;15.398;2023-04-27T10:25:39;97731.47;;;26.61;26.30
12146;BME280;6136;47.032;15.398;2023-04-27T10:28:14;97719.66;;;28.77;23.23
12146;BME280;6136;47.032;15.398;2023-04-27T10:30:45;97717.56;;;27.34;24.93
12146;BME280;6136;47.032;15.398;2023-04-27T10:33:16;97726.75;;;26.48;25.97
12146;BME280;6136;47.032;15.398;2023-04-27T10:35:53;97721.88;;;27.22;24.18
12146;BME280;6136;47.032;15.398;2023-04-27T10:38:27;97725.28;;;25.72;26.63
12146;BME280;6136;47.032;15.398;2023-04-27T10:40:58;97718.34;;;26.43;26.90
12146;BME280;6136;47.032;15.398;2023-04-27T10:43:29;97720.31;;;26.71;25.37
12146;BME280;6136;47.032;15.398;2023-04-27T10:46:08;97715.28;;;24.29;27.75
12146;BME280;6136;47.032;15.398;2023-04-27T10:48:37;97721.56;;;21.95;31.64
12146;BME280;6136;47.032;15.398;2023-04-27T10:51:06;97719.53;;;21.29;32.41
12146;BME280;6136;47.032;15.398;2023-04-27T10:53:35;97723.44;;;20.10;36.93
12146;BME280;6136;47.032;15.398;2023-04-27T10:56:05;97715.25;;;23.03;29.75
12146;BME280;6136;47.032;15.398;2023-04-27T10:58:34;97709.19;;;23.80;29.30
12146;BME280;6136;47.032;15.398;2023-04-27T11:01:07;97706.41;;;24.35;28.47
12146;BME280;6136;47.032;15.398;2023-04-27T11:03:36;97700.84;;;25.05;28.82
12146;BME280;6136;47.032;15.398;2023-04-27T11:06:05;97711.59;;;26.24;26.07
12146;BME280;6136;47.032;15.398;2023-04-27T11:08:42;97698.69;;;25.53;28.70
12146;BME280;6136;47.032;15.398;2023-04-27T11:11:15;97706.34;;;26.74;26.18
12146;BME280;6136;47.032;15.398;2023-04-27T11:13:44;97687.03;;;25.15;28.80
12146;BME280;6136;47.032;15.398;2023-04-27T11:16:15;97692.41;;;25.00;28.08
12146;BME280;6136;47.032;15.398;2023-04-27T11:18:45;97691.41;;;24.25;30.47
12146;BME280;6136;47.032;15.398;2023-04-27T11:21:15;97702.28;;;24.09;28.24
12146;BME280;6136;47.032;15.398;2023-04-27T11:23:43;97705.44;;;23.18;29.01
12146;BME280;6136;47.032;15.398;2023-04-27T11:26:15;97706.47;;;21.16;33.28
12146;BME280;6136;47.032;15.398;2023-04-27T11:28:57;97709.47;;;20.25;35.06
12146;BME280;6136;47.032;15.398;2023-04-27T11:31:26;97709.47;;;20.25;33.13
12146;BME280;6136;47.032;15.398;2023-04-27T11:33:55;97704.63;;;19.46;35.70
12146;BME280;6136;47.032;15.398;2023-04-27T11:36:23;97703.50;;;19.02;37.42
12146;BME280;6136;47.032;15.398;2023-04-27T11:38:56;97696.34;;;19.30;35.91
12146;BME280;6136;47.032;15.398;2023-04-27T11:41:33;97699.25;;;18.99;35.31
12146;BME280;6136;47.032;15.398;2023-04-27T11:44:04;97694.19;;;18.87;34.97
12146;BME280;6136;47.032;15.398;2023-04-27T11:46:34;97708.72;;;18.27;35.79
12146;BME280;6136;47.032;15.398;2023-04-27T11:49:05;97707.41;;;18.02;36.87
12146;BME280;6136;47.032;15.398;2023-04-27T11:51:34;97703.13;;;17.80;37.05
12146;BME280;6136;47.032;15.398;2023-04-27T11:54:04;97710.09;;;17.31;39.03
12146;BME280;6136;47.032;15.398;2023-04-27T11:56:35;97691.53;;;17.09;39.73
12146;BME280;6136;47.032;15.398;2023-04-27T11:59:04;97709.13;;;16.81;40.11
12146;BME280;6136;47.032;15.398;2023-04-27T12:01:33;97700.94;;;16.83;40.49
12146;BME280;6136;47.032;15.398;2023-04-27T12:04:04;97710.88;;;16.60;41.63
12146;BME280;6136;47.032;15.398;2023-04-27T12:06:33;97712.28;;;16.75;40.45
12146;BME280;6136;47.032;15.398;2023-04-27T12:09:01;97713.69;;;16.58;42.00
12146;BME280;6136;47.032;15.398;2023-04-27T12:11:31;97716.41;;;16.47;41.43
12146;BME280;6136;47.032;15.398;2023-04-27T12:14:01;97710.84;;;16.39;41.73
12146;BME280;6136;47.032;15.398;2023-04-27T12:16:30;97703.09;;;16.36;42.02
12146;BME280;6136;47.032;15.398;2023-04-27T12:18:58;97700.28;;;16.69;43.41
12146;BME280;6136;47.032;15.398;2023-04-27T12:21:27;97711.03;;;16.58;43.98
12146;BME280;6136;47.032;15.398;2023-04-27T12:23:56;97692.41;;;17.19;41.13
12146;BME280;6136;47.032;15.398;2023-04-27T12:26:24;97694.81;;;17.53;42.81
12146;BME280;6136;47.032;15.398;2023-04-27T12:28:52;97686.81;;;18.12;39.21
12146;BME280;6136;47.032;15.398;2023-04-27T12:31:23;97688.47;;;19.19;37.64
12146;BME280;6136;47.032;15.398;2023-04-27T12:33:55;97671.41;;;19.37;40.44
12146;BME280;6136;47.032;15.398;2023-04-27T12:36:23;97678.00;;;20.96;37.74
12146;BME280;6136;47.032;15.398;2023-04-27T12:38:57;97678.94;;;20.16;37.61
12146;BME280;6136;47.032;15.398;2023-04-27T12:41:26;97686.06;;;19.62;37.58
12146;BME280;6136;47.032;15.398;2023-04-27T12:43:55;97684.38;;;19.61;38.77
12146;BME280;6136;47.032;15.398;2023-04-27T12:46:24;97666.63;;;19.41;38.21
12146;BME280;6136;47.032;15.398;2023-04-27T12:48:53;97681.78;;;19.69;36.52
12146;BME280;6136;47.032;15.398;2023-04-27T12:51:23;97669.41;;;19.49;38.20
12146;BME280;6136;47.032;15.398;2023-04-27T12:53:51;97675.25;;;19.72;38.24
12146;BME280;6136;47.032;15.398;2023-04-27T12:56:19;97668.03;;;20.53;37.13
12146;BME280;6136;47.032;15.398;2023-04-27T12:58:48;97675.09;;;21.33;35.10
12146;BME280;6136;47.032;15.398;2023-04-27T13:01:16;97678.78;;;22.00;35.24
12146;BME280;6136;47.032;15.398;2023-04-27T13:03:47;97659.81;;;22.91;32.11
12146;BME280;6136;47.032;15.398;2023-04-27T13:06:15;97668.66;;;22.10;32.15
12146;BME280;6136;47.032;15.398;2023-04-27T13:08:44;97674.69;;;20.59;34.82
12146;BME280;6136;47.032;15.398;2023-04-27T13:11:12;97682.84;;;19.03;38.16
12146;BME280;6136;47.032;15.398;2023-04-27T13:13:41;97664.06;;;19.03;37.30
12146;BME280;6136;47.032;15.398;2023-04-27T13:16:10;97673.28;;;18.52;40.00